createdAt,value
2023-08-17T00:00:27.054Z,18.28
2023-08-17T00:02:54.487Z,18.23
2023-08-17T00:05:22.004Z,18.16
2023-08-17T00:07:49.511Z,18.13
2023-08-17T00:10:16.885Z,18.12
2023-08-17T00:12:44.422Z,18.11
2023-08-17T00:15:11.884Z,18.11
2023-08-17T00:17:39.380Z,18.11
2023-08-17T00:20:08.060Z,18.08
2023-08-17T00:22:35.411Z,18.08
2023-08-17T00:25:05.871Z,18.09
2023-08-17T00:27:33.970Z,18.09
2023-08-17T00:30:01.360Z,18.09
2023-08-17T00:32:28.756Z,18.09
2023-08-17T00:34:56.163Z,18.10
2023-08-17T00:37:23.861Z,18.12
2023-08-17T00:39:51.980Z,18.13
2023-08-17T00:42:19.294Z,18.15
2023-08-17T00:44:46.685Z,18.16
2023-08-17T00:47:14.002Z,18.15
2023-08-17T00:49:42.049Z,18.12
2023-08-17T00:52:09.390Z,18.09
2023-08-17T00:54:36.705Z,18.04
2023-08-17T00:57:07.892Z,18.01
2023-08-17T00:59:37.029Z,18.00
2023-08-17T01:02:04.908Z,17.99
2023-08-17T01:04:32.921Z,17.97
2023-08-17T01:07:00.354Z,17.94
2023-08-17T01:09:28.354Z,17.88
2023-08-17T01:12:25.584Z,17.83
2023-08-17T01:15:22.564Z,17.78
2023-08-17T01:18:32.055Z,17.74
2023-08-17T01:20:59.554Z,17.71
2023-08-17T01:23:26.881Z,17.69
2023-08-17T01:28:10.761Z,17.67
2023-08-17T01:31:02.356Z,17.62
2023-08-17T01:33:41.640Z,17.61
2023-08-17T01:36:14.263Z,17.60
2023-08-17T01:38:41.965Z,17.58
2023-08-17T01:41:14.387Z,17.54
2023-08-17T01:43:47.235Z,17.51
2023-08-17T01:46:16.847Z,17.49
2023-08-17T01:48:45.303Z,17.46
2023-08-17T01:51:20.953Z,17.45
2023-08-17T01:53:48.526Z,17.42
2023-08-17T01:56:15.964Z,17.38
2023-08-17T01:58:43.392Z,17.34
2023-08-17T02:01:11.339Z,17.32
2023-08-17T02:03:38.945Z,17.30
2023-08-17T02:06:06.509Z,17.28
2023-08-17T02:08:34.823Z,17.25
2023-08-17T02:11:02.201Z,17.22
2023-08-17T02:13:29.638Z,17.19
2023-08-17T02:16:06.958Z,17.14
2023-08-17T02:18:36.342Z,17.09
2023-08-17T02:21:03.904Z,17.02
2023-08-17T02:23:31.261Z,16.94
2023-08-17T02:25:58.588Z,16.88
2023-08-17T02:28:25.916Z,16.84
2023-08-17T02:31:00.062Z,16.83
2023-08-17T02:33:28.976Z,16.83
2023-08-17T02:35:56.424Z,16.83
2023-08-17T02:38:24.229Z,16.83
2023-08-17T02:40:51.654Z,16.83
2023-08-17T02:43:19.148Z,16.81
2023-08-17T02:45:46.528Z,16.80
2023-08-17T02:48:13.965Z,16.79
2023-08-17T02:50:42.343Z,16.78
2023-08-17T02:53:09.908Z,16.77
2023-08-17T02:55:37.824Z,16.76
2023-08-17T02:58:05.200Z,16.76
2023-08-17T03:00:32.587Z,16.77
2023-08-17T03:03:00.021Z,16.77
2023-08-17T03:05:27.495Z,16.78
2023-08-17T03:07:55.880Z,16.78
2023-08-17T03:10:23.339Z,16.78
2023-08-17T03:12:52.176Z,16.78
2023-08-17T03:15:19.579Z,16.78
2023-08-17T03:17:47.028Z,16.79
2023-08-17T03:20:14.562Z,16.81
2023-08-17T03:22:42.008Z,16.83
2023-08-17T03:25:09.779Z,16.86
2023-08-17T03:27:37.560Z,16.90
2023-08-17T03:30:06.212Z,16.94
2023-08-17T03:32:33.839Z,16.98
2023-08-17T03:35:01.202Z,17.03
2023-08-17T03:37:28.875Z,17.10
2023-08-17T03:39:56.480Z,17.16
2023-08-17T03:42:23.832Z,17.22
2023-08-17T03:48:04.233Z,17.42
2023-08-17T03:50:32.117Z,17.48
2023-08-17T03:53:00.066Z,17.61
2023-08-17T03:55:27.917Z,17.82
2023-08-17T03:57:55.937Z,18.09
2023-08-17T04:00:23.258Z,18.39
2023-08-17T04:02:54.753Z,18.63
2023-08-17T04:05:22.481Z,18.90
2023-08-17T04:07:49.892Z,19.25
2023-08-17T04:10:17.328Z,19.65
2023-08-17T04:12:44.713Z,20.12
2023-08-17T04:15:12.052Z,20.53
2023-08-17T04:17:39.714Z,20.89
2023-08-17T04:20:08.338Z,21.31
2023-08-17T04:22:35.643Z,21.74
2023-08-17T04:25:03.004Z,22.08
2023-08-17T04:27:31.444Z,22.31
2023-08-17T04:29:59.225Z,22.53
2023-08-17T04:32:27.484Z,22.79
2023-08-17T04:34:55.025Z,23.08
2023-08-17T04:37:22.418Z,23.41
2023-08-17T04:39:50.353Z,23.74
2023-08-17T04:42:21.194Z,24.03
2023-08-17T04:44:48.664Z,24.15
2023-08-17T04:47:16.059Z,24.13
2023-08-17T04:49:43.698Z,24.18
2023-08-17T04:52:11.135Z,24.17
2023-08-17T04:54:38.877Z,24.07
2023-08-17T04:57:06.776Z,23.91
2023-08-17T04:59:34.361Z,23.74
2023-08-17T05:02:01.779Z,23.59
2023-08-17T05:04:31.366Z,23.43
2023-08-17T05:06:58.734Z,23.28
2023-08-17T05:09:27.532Z,23.11
2023-08-17T05:11:55.699Z,22.95
2023-08-17T05:14:23.064Z,22.81
2023-08-17T05:16:50.419Z,22.70
2023-08-17T05:19:17.995Z,22.62
2023-08-17T05:21:45.403Z,22.58
2023-08-17T05:24:13.077Z,22.53
2023-08-17T05:26:40.849Z,22.51
2023-08-17T05:29:08.177Z,22.47
2023-08-17T05:31:35.578Z,22.40
2023-08-17T05:34:03.288Z,22.29
2023-08-17T05:36:31.078Z,22.23
2023-08-17T05:38:58.628Z,22.22
2023-08-17T05:41:25.998Z,22.25
2023-08-17T05:43:53.643Z,22.26
2023-08-17T05:46:21.009Z,22.28
2023-08-17T05:48:48.493Z,22.30
2023-08-17T05:51:15.856Z,22.34
2023-08-17T05:53:43.362Z,22.40
2023-08-17T05:56:10.741Z,22.41
2023-08-17T05:58:38.081Z,22.38
2023-08-17T06:01:09.352Z,22.35
2023-08-17T06:03:37.711Z,22.26
2023-08-17T06:06:06.744Z,22.20
2023-08-17T06:08:34.215Z,22.15
2023-08-17T06:11:02.068Z,22.09
2023-08-17T06:13:29.492Z,22.10
2023-08-17T06:16:00.074Z,22.11
2023-08-17T06:18:27.413Z,22.12
2023-08-17T06:20:55.126Z,22.12
2023-08-17T06:23:22.691Z,22.14
2023-08-17T06:25:50.009Z,22.20
2023-08-17T06:28:17.340Z,22.31
2023-08-17T06:30:44.693Z,22.42
2023-08-17T06:33:12.811Z,22.56
2023-08-17T06:35:40.267Z,22.71
2023-08-17T06:38:07.613Z,22.83
2023-08-17T06:40:34.959Z,22.96
2023-08-17T06:43:02.433Z,23.10
2023-08-17T06:45:29.896Z,23.23
2023-08-17T06:47:57.327Z,23.35
2023-08-17T06:50:25.041Z,23.44
2023-08-17T06:52:52.409Z,23.54
2023-08-17T06:55:19.860Z,23.65
2023-08-17T06:57:48.377Z,23.77
2023-08-17T07:00:16.166Z,23.87
2023-08-17T07:02:53.872Z,23.96
2023-08-17T07:05:22.551Z,24.08
2023-08-17T07:07:50.123Z,24.20
2023-08-17T07:10:17.551Z,24.29
2023-08-17T07:12:44.860Z,24.31
2023-08-17T07:15:13.744Z,24.33
2023-08-17T07:17:41.190Z,24.39
2023-08-17T07:22:39.428Z,24.51
2023-08-17T07:25:09.953Z,24.57
2023-08-17T07:27:37.386Z,24.64
2023-08-17T07:30:05.431Z,24.74
2023-08-17T07:32:33.329Z,24.82
2023-08-17T07:35:00.742Z,24.94
2023-08-17T07:37:34.899Z,25.07
2023-08-17T07:40:05.044Z,25.21
2023-08-17T07:44:59.998Z,25.49
2023-08-17T07:47:27.850Z,25.62
2023-08-17T07:49:56.034Z,25.75
2023-08-17T07:52:23.373Z,25.86
2023-08-17T07:54:50.671Z,25.96
2023-08-17T07:57:17.995Z,26.06
2023-08-17T07:59:45.584Z,26.16
2023-08-17T08:02:12.908Z,26.24
2023-08-17T08:04:40.249Z,26.30
2023-08-17T08:07:07.561Z,26.30
2023-08-17T08:09:34.835Z,26.30
2023-08-17T08:12:02.967Z,26.29
2023-08-17T08:14:30.667Z,26.26
2023-08-17T08:16:57.952Z,26.23
2023-08-17T08:19:25.473Z,26.20
2023-08-17T08:21:52.723Z,26.15
2023-08-17T08:24:36.542Z,26.06
2023-08-17T08:27:05.206Z,26.00
2023-08-17T08:29:32.500Z,25.96
2023-08-17T08:32:01.180Z,25.93
2023-08-17T08:34:28.489Z,25.94
2023-08-17T08:36:56.085Z,25.99
2023-08-17T08:39:23.372Z,26.07
2023-08-17T08:41:50.801Z,26.15
2023-08-17T08:44:18.056Z,26.25
2023-08-17T08:46:45.821Z,26.39
2023-08-17T08:49:13.263Z,26.53
2023-08-17T08:51:43.763Z,26.70
2023-08-17T08:54:14.654Z,26.87
2023-08-17T08:56:47.835Z,27.02
2023-08-17T08:59:15.506Z,27.16
2023-08-17T09:01:42.981Z,27.29
2023-08-17T09:04:10.490Z,27.44
2023-08-17T09:06:37.732Z,27.60
2023-08-17T09:09:05.198Z,27.73
2023-08-17T09:11:32.505Z,27.84
2023-08-17T09:13:59.884Z,27.93
2023-08-17T09:16:28.743Z,28.02
2023-08-17T09:18:56.538Z,28.09
2023-08-17T09:21:24.592Z,28.14
2023-08-17T09:26:26.375Z,28.20
2023-08-17T09:28:57.960Z,28.24
2023-08-17T09:31:25.831Z,28.28
2023-08-17T09:33:53.700Z,28.32
2023-08-17T09:36:24.602Z,28.36
2023-08-17T09:38:52.109Z,28.41
2023-08-17T09:41:20.327Z,28.43
2023-08-17T09:43:48.251Z,28.44
2023-08-17T09:46:16.095Z,28.47
2023-08-17T09:48:47.116Z,28.50
2023-08-17T09:51:17.931Z,28.52
2023-08-17T09:53:45.170Z,28.53
2023-08-17T09:58:43.600Z,28.54
2023-08-17T10:01:11.291Z,28.53
2023-08-17T10:03:39.252Z,28.53
2023-08-17T10:06:08.074Z,28.57
2023-08-17T10:08:40.755Z,28.60
2023-08-17T10:11:10.152Z,28.60
2023-08-17T10:13:46.514Z,28.58
2023-08-17T10:16:20.116Z,28.59
2023-08-17T10:26:23.378Z,28.84
2023-08-17T10:28:51.515Z,28.86
2023-08-17T10:31:18.914Z,28.89
2023-08-17T10:33:47.266Z,28.93
2023-08-17T10:36:14.596Z,28.99
2023-08-17T10:38:41.883Z,29.01
2023-08-17T10:43:57.807Z,28.97
2023-08-17T10:46:38.375Z,28.99
2023-08-17T10:49:09.376Z,29.03
2023-08-17T10:51:36.758Z,29.08
2023-08-17T10:54:05.311Z,29.13
2023-08-17T10:56:34.064Z,29.19
2023-08-17T10:59:03.155Z,29.25
2023-08-17T11:01:34.451Z,29.33
2023-08-17T11:04:17.754Z,29.40
2023-08-17T11:06:45.908Z,29.49
2023-08-17T11:09:13.498Z,29.56
2023-08-17T11:11:40.984Z,29.65
2023-08-17T11:14:08.303Z,29.73
2023-08-17T11:16:35.696Z,29.83
2023-08-17T11:19:03.277Z,29.92
2023-08-17T11:21:30.579Z,30.00
2023-08-17T11:23:58.536Z,30.05
2023-08-17T11:26:26.126Z,30.05
2023-08-17T11:28:53.486Z,30.06
2023-08-17T11:31:20.810Z,30.09
2023-08-17T11:33:48.644Z,30.13
2023-08-17T11:36:16.216Z,30.18
2023-08-17T11:38:44.709Z,30.26
2023-08-17T11:43:43.600Z,30.45
2023-08-17T11:46:11.300Z,30.54
2023-08-17T11:48:38.808Z,30.63
2023-08-17T11:51:06.175Z,30.71
2023-08-17T11:53:35.611Z,30.78
2023-08-17T11:56:06.827Z,30.84
2023-08-17T11:58:46.754Z,30.91
2023-08-17T12:01:17.238Z,30.96
2023-08-17T12:03:45.109Z,31.00
2023-08-17T12:06:15.813Z,31.03
2023-08-17T12:08:48.435Z,31.07
2023-08-17T12:11:19.797Z,31.13
2023-08-17T12:13:54.171Z,31.22
2023-08-17T12:16:22.823Z,31.30
2023-08-17T12:18:53.690Z,31.36
2023-08-17T12:21:23.140Z,31.40
2023-08-17T12:23:50.656Z,31.44
2023-08-17T12:26:24.301Z,31.44
2023-08-17T12:28:51.685Z,31.34
2023-08-17T12:31:23.406Z,31.21
2023-08-17T12:33:51.740Z,31.06
2023-08-17T12:36:19.996Z,30.95
2023-08-17T12:38:49.368Z,30.93
2023-08-17T12:41:17.527Z,30.94
2023-08-17T12:43:45.166Z,30.88
2023-08-17T12:46:12.503Z,30.78
2023-08-17T12:48:40.292Z,30.70
2023-08-17T16:46:38.301Z,27.32
2023-08-17T16:49:04.864Z,27.21
2023-08-17T16:51:35.942Z,27.13
2023-08-17T16:54:03.665Z,27.03
2023-08-17T16:56:30.483Z,26.93
2023-08-17T16:59:01.690Z,26.82
2023-08-17T17:01:29.359Z,26.71
2023-08-17T17:03:56.116Z,26.61
2023-08-17T17:06:22.677Z,26.52
2023-08-17T17:08:49.233Z,26.42
2023-08-17T17:11:15.941Z,26.31
2023-08-17T17:13:42.627Z,26.19
2023-08-17T17:16:09.329Z,26.08
2023-08-17T17:18:35.931Z,25.98
2023-08-17T17:21:02.608Z,25.90
2023-08-17T17:23:29.320Z,25.83
2023-08-17T17:25:55.995Z,25.76
2023-08-17T17:28:22.490Z,25.67
2023-08-17T17:30:49.199Z,25.58
2023-08-17T17:33:15.871Z,25.51
2023-08-17T17:35:42.402Z,25.43
2023-08-17T17:38:10.355Z,25.34
2023-08-17T17:40:37.132Z,25.27
2023-08-17T17:43:04.233Z,25.21
2023-08-17T17:45:30.958Z,25.13
2023-08-17T17:47:57.848Z,25.05
2023-08-17T17:50:24.666Z,24.95
2023-08-17T17:52:51.802Z,24.87
2023-08-17T17:55:18.623Z,24.80
2023-08-17T17:57:45.360Z,24.74
2023-08-17T18:00:14.038Z,24.68
2023-08-17T18:02:42.626Z,24.62
2023-08-17T18:05:10.260Z,24.56
2023-08-17T18:07:37.038Z,24.51
2023-08-17T18:10:04.526Z,24.47
2023-08-17T18:12:32.820Z,24.42
2023-08-17T18:14:59.678Z,24.39
2023-08-17T18:17:26.762Z,24.34
2023-08-17T18:19:53.655Z,24.29
2023-08-17T18:22:21.182Z,24.23
2023-08-17T18:24:50.696Z,24.19
2023-08-17T18:27:17.387Z,24.14
2023-08-17T18:29:44.327Z,24.09
2023-08-17T18:32:11.166Z,24.01
2023-08-17T18:34:37.854Z,23.96
2023-08-17T18:37:04.724Z,23.93
2023-08-17T18:39:31.629Z,23.88
2023-08-17T18:41:58.472Z,23.84
2023-08-17T18:44:25.463Z,23.79
2023-08-17T18:46:52.142Z,23.74
2023-08-17T18:49:18.896Z,23.68
2023-08-17T18:51:45.662Z,23.63
2023-08-17T18:54:12.387Z,23.58
2023-08-17T18:56:39.563Z,23.53
2023-08-17T18:59:06.250Z,23.47
2023-08-17T19:01:33.135Z,23.41
2023-08-17T19:04:00.219Z,23.37
2023-08-17T19:06:27.211Z,23.32
2023-08-17T19:08:53.902Z,23.28
2023-08-17T19:11:20.784Z,23.24
2023-08-17T19:13:47.615Z,23.19
2023-08-17T19:16:14.382Z,23.15
2023-08-17T19:18:41.192Z,23.11
2023-08-17T19:21:08.262Z,23.08
2023-08-17T19:23:35.236Z,23.06
2023-08-17T19:26:02.042Z,23.02
2023-08-17T19:28:29.122Z,22.98
2023-08-17T19:30:55.879Z,22.92
2023-08-17T19:33:22.632Z,22.85
2023-08-17T19:35:50.966Z,22.80
2023-08-17T19:38:17.668Z,22.75
2023-08-17T19:40:47.242Z,22.73
2023-08-17T19:43:14.257Z,22.72
2023-08-17T19:45:41.622Z,22.72
2023-08-17T19:48:08.367Z,22.73
2023-08-17T19:50:35.469Z,22.73
2023-08-17T19:53:02.104Z,22.74
2023-08-17T19:55:28.836Z,22.74
2023-08-17T19:57:55.608Z,22.69
2023-08-17T20:00:22.741Z,22.65
2023-08-17T20:02:49.785Z,22.62
2023-08-17T20:05:16.620Z,22.61
2023-08-17T20:07:43.309Z,22.60
2023-08-17T20:10:10.777Z,22.58
2023-08-17T20:12:37.937Z,22.51
2023-08-17T20:15:05.592Z,22.41
2023-08-17T20:17:32.666Z,22.31
2023-08-17T20:19:59.544Z,22.23
2023-08-17T20:22:26.252Z,22.16
2023-08-17T20:24:52.976Z,22.09
2023-08-17T20:27:19.561Z,22.04
2023-08-17T20:29:46.264Z,21.99
2023-08-17T20:32:12.774Z,21.95
2023-08-17T20:34:39.562Z,21.91
2023-08-17T20:37:06.454Z,21.87
2023-08-17T20:39:33.195Z,21.84
2023-08-17T20:42:07.345Z,21.78
2023-08-17T20:44:34.596Z,21.71
2023-08-17T20:47:01.363Z,21.65
2023-08-17T20:49:29.925Z,21.59
2023-08-17T20:51:56.636Z,21.53
2023-08-17T20:54:23.342Z,21.48
2023-08-17T20:56:50.291Z,21.41
2023-08-17T20:59:17.024Z,21.36
2023-08-17T21:01:44.821Z,21.31
2023-08-17T21:04:11.687Z,21.26
2023-08-17T21:06:41.589Z,21.22
2023-08-17T21:09:08.886Z,21.18
2023-08-17T21:11:36.873Z,21.14
2023-08-17T21:14:03.940Z,21.09
2023-08-17T21:16:30.754Z,21.04
2023-08-17T21:19:00.712Z,21.01
2023-08-17T21:21:28.280Z,20.97
2023-08-17T21:23:55.490Z,20.94
2023-08-17T21:26:22.141Z,20.90
2023-08-17T21:28:48.824Z,20.86
2023-08-17T21:31:15.726Z,20.82
2023-08-17T21:33:42.638Z,20.78
2023-08-17T21:36:09.262Z,20.75
2023-08-17T21:38:35.958Z,20.71
2023-08-17T21:41:02.610Z,20.68
2023-08-17T21:43:29.652Z,20.64
2023-08-17T21:45:57.089Z,20.61
2023-08-17T21:48:24.162Z,20.53
2023-08-17T21:50:51.509Z,20.45
2023-08-17T21:53:18.918Z,20.39
2023-08-17T21:55:46.588Z,20.35
2023-08-17T21:58:13.311Z,20.33
2023-08-17T22:00:43.087Z,20.31
2023-08-17T22:03:10.446Z,20.28
2023-08-17T22:05:37.591Z,20.25
2023-08-17T22:08:05.220Z,20.24
2023-08-17T22:10:32.413Z,20.21
2023-08-17T22:12:59.110Z,20.18
2023-08-17T22:15:25.992Z,20.14
2023-08-17T22:17:52.681Z,20.11
2023-08-17T22:20:19.610Z,20.07
2023-08-17T22:22:46.780Z,20.03
2023-08-17T22:25:13.424Z,19.99
2023-08-17T22:27:40.364Z,19.94
2023-08-17T22:30:07.751Z,19.89
2023-08-17T22:32:34.526Z,19.83
2023-08-17T22:35:01.405Z,19.76
2023-08-17T22:37:28.328Z,19.68
2023-08-17T22:39:55.167Z,19.60
2023-08-17T22:42:21.728Z,19.55
2023-08-17T22:44:48.602Z,19.51
2023-08-17T22:47:15.245Z,19.47
2023-08-17T22:49:41.830Z,19.42
2023-08-17T22:52:08.485Z,19.41
2023-08-17T22:54:35.073Z,19.41
2023-08-17T22:57:03.387Z,19.42
2023-08-17T22:59:30.260Z,19.41
2023-08-17T23:01:57.092Z,19.39
2023-08-17T23:04:26.137Z,19.37
2023-08-17T23:06:54.990Z,19.35
2023-08-17T23:09:21.543Z,19.34
2023-08-17T23:11:48.125Z,19.34
2023-08-17T23:14:14.726Z,19.33
2023-08-17T23:16:41.470Z,19.30
2023-08-17T23:19:08.030Z,19.28
2023-08-17T23:21:34.681Z,19.26
2023-08-17T23:24:01.377Z,19.25
2023-08-17T23:26:28.297Z,19.24
2023-08-17T23:28:54.967Z,19.23
2023-08-17T23:31:21.570Z,19.22
2023-08-17T23:33:48.357Z,19.21
2023-08-17T23:36:14.903Z,19.21
2023-08-17T23:38:41.629Z,19.21
2023-08-17T23:41:08.393Z,19.19
2023-08-17T23:43:35.064Z,19.15
2023-08-17T23:46:01.859Z,19.09
2023-08-17T23:48:28.915Z,19.06
2023-08-17T23:50:55.420Z,19.03
2023-08-17T23:53:21.984Z,19.01
2023-08-17T23:55:49.278Z,18.98
2023-08-17T23:58:16.841Z,18.96
